sensor_id;sensor_type;location;lat;lon;timestamp;temperature;humidity
65404;DHT22;52014;52.088;5.096;2023-05-14T00:02:12;15.50;99.90
65404;DHT22;52014;52.088;5.096;2023-05-14T00:04:38;15.40;99.90
65404;DHT22;52014;52.088;5.096;2023-05-14T00:07:03;15.40;99.90
65404;DHT22;52014;52.088;5.096;2023-05-14T00:09:29;15.30;99.90
65404;DHT22;52014;52.088;5.096;2023-05-14T00:11:54;15.30;99.90
65404;DHT22;52014;52.088;5.096;2023-05-14T00:14:20;15.40;99.90
65404;DHT22;52014;52.088;5.096;2023-05-14T00:16:45;15.30;99.90
65404;DHT22;52014;52.088;5.096;2023-05-14T00:19:11;15.30;99.90
65404;DHT22;52014;52.088;5.096;2023-05-14T00:21:36;15.30;99.90
65404;DHT22;52014;52.088;5.096;2023-05-14T00:24:02;15.30;99.90
65404;DHT22;52014;52.088;5.096;2023-05-14T00:26:27;15.30;99.90
65404;DHT22;52014;52.088;5.096;2023-05-14T00:28:53;15.30;99.90
65404;DHT22;52014;52.088;5.096;2023-05-14T00:31:18;15.20;99.90
65404;DHT22;52014;52.088;5.096;2023-05-14T00:33:43;15.20;99.90
65404;DHT22;52014;52.088;5.096;2023-05-14T00:36:09;15.20;99.90
65404;DHT22;52014;52.088;5.096;2023-05-14T00:38:35;15.10;99.90
65404;DHT22;52014;52.088;5.096;2023-05-14T00:41:00;15.10;99.90
65404;DHT22;52014;52.088;5.096;2023-05-14T00:43:25;15.10;99.90
65404;DHT22;52014;52.088;5.096;2023-05-14T00:45:51;15.10;99.90
65404;DHT22;52014;52.088;5.096;2023-05-14T00:48:18;15.10;99.90
65404;DHT22;52014;52.088;5.096;2023-05-14T00:50:44;15.10;99.90
65404;DHT22;52014;52.088;5.096;2023-05-14T00:53:09;15.00;99.90
65404;DHT22;52014;52.088;5.096;2023-05-14T00:55:39;15.00;99.90
65404;DHT22;52014;52.088;5.096;2023-05-14T00:58:06;15.00;99.90
65404;DHT22;52014;52.088;5.096;2023-05-14T01:00:32;15.10;99.90
65404;DHT22;52014;52.088;5.096;2023-05-14T01:02:57;14.90;99.90
65404;DHT22;52014;52.088;5.096;2023-05-14T01:05:26;15.10;99.90
65404;DHT22;52014;52.088;5.096;2023-05-14T01:08:14;14.90;99.90
65404;DHT22;52014;52.088;5.096;2023-05-14T01:10:44;14.90;99.90
65404;DHT22;52014;52.088;5.096;2023-05-14T01:13:17;14.90;99.90
65404;DHT22;52014;52.088;5.096;2023-05-14T01:15:45;14.90;99.90
65404;DHT22;52014;52.088;5.096;2023-05-14T01:18:13;14.90;99.90
65404;DHT22;52014;52.088;5.096;2023-05-14T01:20:40;14.90;99.90
65404;DHT22;52014;52.088;5.096;2023-05-14T01:23:06;14.90;99.90
65404;DHT22;52014;52.088;5.096;2023-05-14T01:25:31;14.80;99.90
65404;DHT22;52014;52.088;5.096;2023-05-14T01:33:12;14.80;99.90
65404;DHT22;52014;52.088;5.096;2023-05-14T01:35:37;14.80;99.90
65404;DHT22;52014;52.088;5.096;2023-05-14T01:38:04;14.80;99.90
65404;DHT22;52014;52.088;5.096;2023-05-14T01:40:30;14.80;99.90
65404;DHT22;52014;52.088;5.096;2023-05-14T01:42:56;14.80;99.90
65404;DHT22;52014;52.088;5.096;2023-05-14T01:45:22;14.80;99.90
65404;DHT22;52014;52.088;5.096;2023-05-14T01:47:48;14.70;99.90
65404;DHT22;52014;52.088;5.096;2023-05-14T01:50:14;14.70;99.90
65404;DHT22;52014;52.088;5.096;2023-05-14T01:52:39;14.70;99.90
65404;DHT22;52014;52.088;5.096;2023-05-14T01:55:05;14.70;99.90
65404;DHT22;52014;52.088;5.096;2023-05-14T01:57:30;14.70;99.90
65404;DHT22;52014;52.088;5.096;2023-05-14T01:59:56;14.70;99.90
65404;DHT22;52014;52.088;5.096;2023-05-14T02:02:21;14.60;99.90
65404;DHT22;52014;52.088;5.096;2023-05-14T02:04:47;14.60;99.90
65404;DHT22;52014;52.088;5.096;2023-05-14T02:07:12;14.60;99.90
65404;DHT22;52014;52.088;5.096;2023-05-14T02:09:38;14.60;99.90
65404;DHT22;52014;52.088;5.096;2023-05-14T02:12:04;14.60;99.90
65404;DHT22;52014;52.088;5.096;2023-05-14T02:14:30;14.60;99.90
65404;DHT22;52014;52.088;5.096;2023-05-14T02:16:55;14.60;99.90
65404;DHT22;52014;52.088;5.096;2023-05-14T02:19:21;14.60;99.90
65404;DHT22;52014;52.088;5.096;2023-05-14T02:21:47;14.50;99.90
65404;DHT22;52014;52.088;5.096;2023-05-14T02:24:12;14.50;99.90
65404;DHT22;52014;52.088;5.096;2023-05-14T02:26:38;14.50;99.90
65404;DHT22;52014;52.088;5.096;2023-05-14T02:29:03;14.50;99.90
65404;DHT22;52014;52.088;5.096;2023-05-14T02:31:28;14.50;99.90
65404;DHT22;52014;52.088;5.096;2023-05-14T02:33:54;14.60;99.90
65404;DHT22;52014;52.088;5.096;2023-05-14T02:36:19;14.50;99.90
65404;DHT22;52014;52.088;5.096;2023-05-14T02:38:45;14.50;99.90
65404;DHT22;52014;52.088;5.096;2023-05-14T02:41:10;14.50;99.90
65404;DHT22;52014;52.088;5.096;2023-05-14T02:43:36;14.50;99.90
65404;DHT22;52014;52.088;5.096;2023-05-14T02:46:01;14.50;99.90
65404;DHT22;52014;52.088;5.096;2023-05-14T02:48:27;14.50;99.90
65404;DHT22;52014;52.088;5.096;2023-05-14T02:50:52;14.40;99.90
65404;DHT22;52014;52.088;5.096;2023-05-14T02:53:18;14.50;99.90
65404;DHT22;52014;52.088;5.096;2023-05-14T02:55:43;14.40;99.90
65404;DHT22;52014;52.088;5.096;2023-05-14T02:58:08;14.40;99.90
65404;DHT22;52014;52.088;5.096;2023-05-14T03:00:34;14.40;99.90
65404;DHT22;52014;52.088;5.096;2023-05-14T03:03:00;14.40;99.90
65404;DHT22;52014;52.088;5.096;2023-05-14T03:05:25;14.40;99.90
65404;DHT22;52014;52.088;5.096;2023-05-14T03:07:51;14.40;99.90
65404;DHT22;52014;52.088;5.096;2023-05-14T03:10:18;14.40;99.90
65404;DHT22;52014;52.088;5.096;2023-05-14T03:12:43;14.30;99.90
65404;DHT22;52014;52.088;5.096;2023-05-14T03:15:09;14.40;99.90
65404;DHT22;52014;52.088;5.096;2023-05-14T03:17:34;14.30;99.90
65404;DHT22;52014;52.088;5.096;2023-05-14T03:20:00;14.30;99.90
65404;DHT22;52014;52.088;5.096;2023-05-14T03:22:25;14.30;99.90
65404;DHT22;52014;52.088;5.096;2023-05-14T03:24:51;14.30;99.90
65404;DHT22;52014;52.088;5.096;2023-05-14T03:27:16;14.30;99.90
65404;DHT22;52014;52.088;5.096;2023-05-14T03:29:42;14.30;99.90
65404;DHT22;52014;52.088;5.096;2023-05-14T03:32:07;14.30;99.90
65404;DHT22;52014;52.088;5.096;2023-05-14T03:34:32;14.30;99.90
65404;DHT22;52014;52.088;5.096;2023-05-14T03:36:58;14.30;99.90
65404;DHT22;52014;52.088;5.096;2023-05-14T03:39:23;14.30;99.90
65404;DHT22;52014;52.088;5.096;2023-05-14T03:41:49;14.30;99.90
65404;DHT22;52014;52.088;5.096;2023-05-14T03:44:14;14.30;99.90
65404;DHT22;52014;52.088;5.096;2023-05-14T03:46:40;14.30;99.90
65404;DHT22;52014;52.088;5.096;2023-05-14T03:49:06;14.30;99.90
65404;DHT22;52014;52.088;5.096;2023-05-14T03:51:32;14.30;99.90
65404;DHT22;52014;52.088;5.096;2023-05-14T03:53:57;14.20;99.90
65404;DHT22;52014;52.088;5.096;2023-05-14T03:56:23;14.20;99.90
65404;DHT22;52014;52.088;5.096;2023-05-14T03:58:49;14.30;99.90
65404;DHT22;52014;52.088;5.096;2023-05-14T04:01:14;14.20;99.90
65404;DHT22;52014;52.088;5.096;2023-05-14T04:03:40;14.20;99.90
65404;DHT22;52014;52.088;5.096;2023-05-14T04:06:05;14.20;99.90
65404;DHT22;52014;52.088;5.096;2023-05-14T04:08:31;14.20;99.90
65404;DHT22;52014;52.088;5.096;2023-05-14T04:10:56;14.20;99.90
65404;DHT22;52014;52.088;5.096;2023-05-14T04:13:21;14.20;99.90
65404;DHT22;52014;52.088;5.096;2023-05-14T04:15:48;14.20;99.90
65404;DHT22;52014;52.088;5.096;2023-05-14T04:18:13;14.20;99.90
65404;DHT22;52014;52.088;5.096;2023-05-14T04:20:39;14.30;99.90
65404;DHT22;52014;52.088;5.096;2023-05-14T04:23:04;14.20;99.90
65404;DHT22;52014;52.088;5.096;2023-05-14T04:25:30;14.20;99.90
65404;DHT22;52014;52.088;5.096;2023-05-14T04:27:56;14.30;99.90
65404;DHT22;52014;52.088;5.096;2023-05-14T04:30:21;14.30;99.90
65404;DHT22;52014;52.088;5.096;2023-05-14T04:32:46;14.30;99.90
65404;DHT22;52014;52.088;5.096;2023-05-14T04:35:12;14.30;99.90
65404;DHT22;52014;52.088;5.096;2023-05-14T04:37:37;14.30;99.90
65404;DHT22;52014;52.088;5.096;2023-05-14T04:40:03;14.30;99.90
65404;DHT22;52014;52.088;5.096;2023-05-14T04:42:29;14.30;99.90
65404;DHT22;52014;52.088;5.096;2023-05-14T04:44:54;14.40;99.90
65404;DHT22;52014;52.088;5.096;2023-05-14T04:47:20;14.30;99.90
65404;DHT22;52014;52.088;5.096;2023-05-14T04:49:45;14.40;99.90
65404;DHT22;52014;52.088;5.096;2023-05-14T04:52:11;14.40;99.90
65404;DHT22;52014;52.088;5.096;2023-05-14T04:54:36;14.50;99.90
65404;DHT22;52014;52.088;5.096;2023-05-14T04:57:02;14.70;99.90
65404;DHT22;52014;52.088;5.096;2023-05-14T04:59:30;14.70;99.90
65404;DHT22;52014;52.088;5.096;2023-05-14T05:01:56;14.70;99.90
65404;DHT22;52014;52.088;5.096;2023-05-14T05:04:22;14.70;99.90
65404;DHT22;52014;52.088;5.096;2023-05-14T05:06:48;14.70;99.90
65404;DHT22;52014;52.088;5.096;2023-05-14T05:09:14;14.70;99.90
65404;DHT22;52014;52.088;5.096;2023-05-14T05:11:40;14.80;99.90
65404;DHT22;52014;52.088;5.096;2023-05-14T05:14:06;14.90;99.90
65404;DHT22;52014;52.088;5.096;2023-05-14T05:16:31;14.90;99.90
65404;DHT22;52014;52.088;5.096;2023-05-14T05:18:56;15.00;99.90
65404;DHT22;52014;52.088;5.096;2023-05-14T05:21:22;15.00;99.90
65404;DHT22;52014;52.088;5.096;2023-05-14T05:23:47;15.00;99.90
65404;DHT22;52014;52.088;5.096;2023-05-14T05:26:13;15.00;99.90
65404;DHT22;52014;52.088;5.096;2023-05-14T05:28:38;15.00;99.90
65404;DHT22;52014;52.088;5.096;2023-05-14T05:31:04;15.00;99.90
65404;DHT22;52014;52.088;5.096;2023-05-14T05:33:29;15.00;99.90
65404;DHT22;52014;52.088;5.096;2023-05-14T05:35:55;15.20;99.90
65404;DHT22;52014;52.088;5.096;2023-05-14T05:38:20;15.10;99.90
65404;DHT22;52014;52.088;5.096;2023-05-14T05:40:46;15.10;99.90
65404;DHT22;52014;52.088;5.096;2023-05-14T05:43:13;15.20;99.90
65404;DHT22;52014;52.088;5.096;2023-05-14T05:45:38;15.20;99.90
65404;DHT22;52014;52.088;5.096;2023-05-14T05:48:04;15.30;99.90
65404;DHT22;52014;52.088;5.096;2023-05-14T05:50:29;15.30;99.90
65404;DHT22;52014;52.088;5.096;2023-05-14T05:52:56;15.40;99.90
65404;DHT22;52014;52.088;5.096;2023-05-14T05:55:23;15.50;99.90
65404;DHT22;52014;52.088;5.096;2023-05-14T05:57:49;15.80;99.90
65404;DHT22;52014;52.088;5.096;2023-05-14T06:00:14;16.00;99.90
65404;DHT22;52014;52.088;5.096;2023-05-14T06:02:41;16.20;99.90
65404;DHT22;52014;52.088;5.096;2023-05-14T06:05:06;16.30;99.90
65404;DHT22;52014;52.088;5.096;2023-05-14T06:07:32;16.30;99.90
65404;DHT22;52014;52.088;5.096;2023-05-14T06:09:58;16.20;99.90
65404;DHT22;52014;52.088;5.096;2023-05-14T06:12:24;16.00;99.90
65404;DHT22;52014;52.088;5.096;2023-05-14T06:14:50;15.90;99.90
65404;DHT22;52014;52.088;5.096;2023-05-14T06:17:15;15.80;99.90
65404;DHT22;52014;52.088;5.096;2023-05-14T06:19:41;16.00;99.90
65404;DHT22;52014;52.088;5.096;2023-05-14T06:22:08;16.00;99.90
65404;DHT22;52014;52.088;5.096;2023-05-14T06:24:34;16.40;99.90
65404;DHT22;52014;52.088;5.096;2023-05-14T06:26:59;16.30;99.90
65404;DHT22;52014;52.088;5.096;2023-05-14T06:29:24;16.40;99.90
65404;DHT22;52014;52.088;5.096;2023-05-14T06:31:50;16.50;99.90
65404;DHT22;52014;52.088;5.096;2023-05-14T06:34:15;17.00;99.90
65404;DHT22;52014;52.088;5.096;2023-05-14T06:36:41;17.30;99.90
65404;DHT22;52014;52.088;5.096;2023-05-14T06:39:06;17.40;99.90
65404;DHT22;52014;52.088;5.096;2023-05-14T06:41:32;17.20;99.90
65404;DHT22;52014;52.088;5.096;2023-05-14T06:43:57;17.10;99.90
65404;DHT22;52014;52.088;5.096;2023-05-14T06:46:23;16.80;99.90
65404;DHT22;52014;52.088;5.096;2023-05-14T06:48:48;16.90;99.90
65404;DHT22;52014;52.088;5.096;2023-05-14T06:51:14;16.80;99.90
65404;DHT22;52014;52.088;5.096;2023-05-14T06:53:39;16.70;99.90
65404;DHT22;52014;52.088;5.096;2023-05-14T06:56:05;16.80;99.90
65404;DHT22;52014;52.088;5.096;2023-05-14T06:58:30;16.90;99.90
65404;DHT22;52014;52.088;5.096;2023-05-14T07:00:57;17.00;99.90
65404;DHT22;52014;52.088;5.096;2023-05-14T07:03:22;17.20;99.90
65404;DHT22;52014;52.088;5.096;2023-05-14T07:05:48;17.30;99.90
65404;DHT22;52014;52.088;5.096;2023-05-14T07:08:13;17.20;99.90
65404;DHT22;52014;52.088;5.096;2023-05-14T07:10:39;17.20;99.90
65404;DHT22;52014;52.088;5.096;2023-05-14T07:13:04;17.20;99.90
65404;DHT22;52014;52.088;5.096;2023-05-14T07:15:30;17.30;99.90
65404;DHT22;52014;52.088;5.096;2023-05-14T07:17:55;17.30;99.90
65404;DHT22;52014;52.088;5.096;2023-05-14T07:20:21;17.20;99.90
65404;DHT22;52014;52.088;5.096;2023-05-14T07:22:48;17.40;99.90
65404;DHT22;52014;52.088;5.096;2023-05-14T07:25:13;17.70;99.90
65404;DHT22;52014;52.088;5.096;2023-05-14T07:27:39;17.90;99.90
65404;DHT22;52014;52.088;5.096;2023-05-14T07:30:05;18.00;99.90
65404;DHT22;52014;52.088;5.096;2023-05-14T07:32:31;18.10;99.90
65404;DHT22;52014;52.088;5.096;2023-05-14T07:34:56;18.20;99.90
65404;DHT22;52014;52.088;5.096;2023-05-14T07:37:22;18.30;99.90
65404;DHT22;52014;52.088;5.096;2023-05-14T07:39:50;18.30;99.90
65404;DHT22;52014;52.088;5.096;2023-05-14T07:42:15;18.40;99.90
65404;DHT22;52014;52.088;5.096;2023-05-14T07:44:41;18.40;99.90
65404;DHT22;52014;52.088;5.096;2023-05-14T07:47:06;18.40;99.90
65404;DHT22;52014;52.088;5.096;2023-05-14T07:49:33;18.50;99.90
65404;DHT22;52014;52.088;5.096;2023-05-14T07:51:58;18.60;99.90
65404;DHT22;52014;52.088;5.096;2023-05-14T07:54:23;18.70;99.90
65404;DHT22;52014;52.088;5.096;2023-05-14T07:56:49;18.80;99.90
65404;DHT22;52014;52.088;5.096;2023-05-14T07:59:15;18.80;99.90
65404;DHT22;52014;52.088;5.096;2023-05-14T08:01:40;18.80;99.90
65404;DHT22;52014;52.088;5.096;2023-05-14T08:04:06;18.70;99.90
65404;DHT22;52014;52.088;5.096;2023-05-14T08:06:32;18.70;99.90
65404;DHT22;52014;52.088;5.096;2023-05-14T08:08:57;18.70;99.90
65404;DHT22;52014;52.088;5.096;2023-05-14T08:11:23;18.90;99.90
65404;DHT22;52014;52.088;5.096;2023-05-14T08:13:48;19.00;99.90
65404;DHT22;52014;52.088;5.096;2023-05-14T08:16:13;19.10;99.90
65404;DHT22;52014;52.088;5.096;2023-05-14T08:18:39;19.30;99.90
65404;DHT22;52014;52.088;5.096;2023-05-14T08:21:05;19.30;99.90
65404;DHT22;52014;52.088;5.096;2023-05-14T08:23:30;19.50;99.90
65404;DHT22;52014;52.088;5.096;2023-05-14T08:25:56;19.60;99.90
65404;DHT22;52014;52.088;5.096;2023-05-14T08:28:21;19.60;99.90
65404;DHT22;52014;52.088;5.096;2023-05-14T08:30:47;19.70;99.90
65404;DHT22;52014;52.088;5.096;2023-05-14T08:33:12;19.70;99.90
65404;DHT22;52014;52.088;5.096;2023-05-14T08:35:38;19.40;99.90
65404;DHT22;52014;52.088;5.096;2023-05-14T08:38:03;19.40;99.90
65404;DHT22;52014;52.088;5.096;2023-05-14T08:40:28;19.60;99.90
65404;DHT22;52014;52.088;5.096;2023-05-14T08:42:55;19.70;99.90
65404;DHT22;52014;52.088;5.096;2023-05-14T08:45:22;19.80;99.90
65404;DHT22;52014;52.088;5.096;2023-05-14T08:47:50;19.90;99.90
65404;DHT22;52014;52.088;5.096;2023-05-14T08:50:15;19.90;99.90
65404;DHT22;52014;52.088;5.096;2023-05-14T08:52:41;19.90;99.90
65404;DHT22;52014;52.088;5.096;2023-05-14T08:55:07;20.10;99.90
65404;DHT22;52014;52.088;5.096;2023-05-14T08:57:33;20.10;99.90
65404;DHT22;52014;52.088;5.096;2023-05-14T08:59:58;20.10;99.90
65404;DHT22;52014;52.088;5.096;2023-05-14T09:02:27;20.20;99.90
65404;DHT22;52014;52.088;5.096;2023-05-14T09:04:57;20.20;99.90
65404;DHT22;52014;52.088;5.096;2023-05-14T09:07:22;20.30;99.90
65404;DHT22;52014;52.088;5.096;2023-05-14T09:09:48;20.20;99.90
65404;DHT22;52014;52.088;5.096;2023-05-14T09:12:14;20.30;99.90
65404;DHT22;52014;52.088;5.096;2023-05-14T09:14:39;20.40;99.90
65404;DHT22;52014;52.088;5.096;2023-05-14T09:17:05;20.50;99.90
65404;DHT22;52014;52.088;5.096;2023-05-14T09:19:31;20.70;99.90
65404;DHT22;52014;52.088;5.096;2023-05-14T09:21:57;20.80;99.90
65404;DHT22;52014;52.088;5.096;2023-05-14T09:24:24;20.70;99.90
65404;DHT22;52014;52.088;5.096;2023-05-14T09:26:54;20.80;99.90
65404;DHT22;52014;52.088;5.096;2023-05-14T09:29:20;20.70;99.90
65404;DHT22;52014;52.088;5.096;2023-05-14T09:31:46;20.80;99.90
65404;DHT22;52014;52.088;5.096;2023-05-14T09:34:22;21.00;99.90
65404;DHT22;52014;52.088;5.096;2023-05-14T09:36:48;21.00;99.90
65404;DHT22;52014;52.088;5.096;2023-05-14T09:39:13;21.20;99.90
65404;DHT22;52014;52.088;5.096;2023-05-14T09:41:39;21.30;99.90
65404;DHT22;52014;52.088;5.096;2023-05-14T09:44:04;21.20;99.90
65404;DHT22;52014;52.088;5.096;2023-05-14T09:46:29;21.30;99.90
65404;DHT22;52014;52.088;5.096;2023-05-14T09:48:56;21.40;99.90
65404;DHT22;52014;52.088;5.096;2023-05-14T09:51:22;21.60;99.90
65404;DHT22;52014;52.088;5.096;2023-05-14T09:53:48;21.50;99.90
65404;DHT22;52014;52.088;5.096;2023-05-14T09:56:14;21.60;99.90
65404;DHT22;52014;52.088;5.096;2023-05-14T09:58:40;21.40;99.90
65404;DHT22;52014;52.088;5.096;2023-05-14T10:01:06;21.50;99.90
65404;DHT22;52014;52.088;5.096;2023-05-14T10:03:31;21.50;99.90
65404;DHT22;52014;52.088;5.096;2023-05-14T10:05:57;21.40;99.90
65404;DHT22;52014;52.088;5.096;2023-05-14T10:08:29;21.50;99.90
65404;DHT22;52014;52.088;5.096;2023-05-14T10:10:57;21.70;99.90
65404;DHT22;52014;52.088;5.096;2023-05-14T10:13:25;21.60;99.90
65404;DHT22;52014;52.088;5.096;2023-05-14T10:15:56;21.60;99.90
65404;DHT22;52014;52.088;5.096;2023-05-14T10:18:24;21.70;99.90
65404;DHT22;52014;52.088;5.096;2023-05-14T10:20:52;21.70;99.90
65404;DHT22;52014;52.088;5.096;2023-05-14T10:23:20;21.60;99.90
65404;DHT22;52014;52.088;5.096;2023-05-14T10:25:45;21.60;99.90
65404;DHT22;52014;52.088;5.096;2023-05-14T10:28:11;21.80;99.90
65404;DHT22;52014;52.088;5.096;2023-05-14T10:30:42;22.00;99.90
65404;DHT22;52014;52.088;5.096;2023-05-14T10:33:10;22.00;99.90
65404;DHT22;52014;52.088;5.096;2023-05-14T10:38:29;21.80;99.90
65404;DHT22;52014;52.088;5.096;2023-05-14T10:40:57;21.80;99.90
65404;DHT22;52014;52.088;5.096;2023-05-14T10:43:24;21.90;99.90
65404;DHT22;52014;52.088;5.096;2023-05-14T10:45:50;21.70;99.90
65404;DHT22;52014;52.088;5.096;2023-05-14T10:48:16;21.80;99.90
65404;DHT22;52014;52.088;5.096;2023-05-14T10:50:41;21.80;99.90
65404;DHT22;52014;52.088;5.096;2023-05-14T10:53:09;21.70;99.90
65404;DHT22;52014;52.088;5.096;2023-05-14T10:55:37;21.80;99.90
65404;DHT22;52014;52.088;5.096;2023-05-14T10:58:02;21.80;99.90
65404;DHT22;52014;52.088;5.096;2023-05-14T11:00:28;21.90;99.90
65404;DHT22;52014;52.088;5.096;2023-05-14T11:02:54;22.00;99.90
65404;DHT22;52014;52.088;5.096;2023-05-14T11:05:21;21.80;99.90
65404;DHT22;52014;52.088;5.096;2023-05-14T11:07:47;21.90;99.90
65404;DHT22;52014;52.088;5.096;2023-05-14T11:10:14;22.00;99.90
65404;DHT22;52014;52.088;5.096;2023-05-14T11:12:40;22.00;99.90
65404;DHT22;52014;52.088;5.096;2023-05-14T11:15:07;22.00;99.90
65404;DHT22;52014;52.088;5.096;2023-05-14T11:17:33;21.70;99.90
65404;DHT22;52014;52.088;5.096;2023-05-14T11:19:59;21.60;99.90
65404;DHT22;52014;52.088;5.096;2023-05-14T11:22:25;21.70;99.90
65404;DHT22;52014;52.088;5.096;2023-05-14T11:24:50;21.70;99.90
65404;DHT22;52014;52.088;5.096;2023-05-14T11:27:16;21.60;99.90
65404;DHT22;52014;52.088;5.096;2023-05-14T11:29:42;21.50;99.90
65404;DHT22;52014;52.088;5.096;2023-05-14T11:32:08;21.40;99.90
65404;DHT22;52014;52.088;5.096;2023-05-14T11:34:33;21.40;99.90
65404;DHT22;52014;52.088;5.096;2023-05-14T11:37:03;21.40;99.90
65404;DHT22;52014;52.088;5.096;2023-05-14T11:39:29;21.20;99.90
65404;DHT22;52014;52.088;5.096;2023-05-14T11:41:56;21.10;99.90
65404;DHT22;52014;52.088;5.096;2023-05-14T11:44:22;21.20;99.90
65404;DHT22;52014;52.088;5.096;2023-05-14T11:46:54;21.30;99.90
65404;DHT22;52014;52.088;5.096;2023-05-14T11:49:20;21.20;99.90
65404;DHT22;52014;52.088;5.096;2023-05-14T11:51:45;21.20;99.90
65404;DHT22;52014;52.088;5.096;2023-05-14T11:54:12;21.10;99.90
65404;DHT22;52014;52.088;5.096;2023-05-14T11:56:38;21.00;99.90
65404;DHT22;52014;52.088;5.096;2023-05-14T11:59:03;21.10;99.90
65404;DHT22;52014;52.088;5.096;2023-05-14T12:01:29;21.20;99.90
65404;DHT22;52014;52.088;5.096;2023-05-14T12:03:59;21.20;99.90
65404;DHT22;52014;52.088;5.096;2023-05-14T12:06:29;21.10;99.90
65404;DHT22;52014;52.088;5.096;2023-05-14T12:08:55;21.10;99.90
65404;DHT22;52014;52.088;5.096;2023-05-14T12:11:20;21.20;99.90
65404;DHT22;52014;52.088;5.096;2023-05-14T12:13:46;21.20;99.90
65404;DHT22;52014;52.088;5.096;2023-05-14T12:16:11;21.10;99.90
65404;DHT22;52014;52.088;5.096;2023-05-14T12:18:37;21.10;99.90
65404;DHT22;52014;52.088;5.096;2023-05-14T12:21:02;21.10;99.90
65404;DHT22;52014;52.088;5.096;2023-05-14T12:23:28;21.10;99.90
65404;DHT22;52014;52.088;5.096;2023-05-14T12:25:55;21.00;99.90
65404;DHT22;52014;52.088;5.096;2023-05-14T12:28:25;21.00;99.90
65404;DHT22;52014;52.088;5.096;2023-05-14T12:30:54;21.10;99.90
65404;DHT22;52014;52.088;5.096;2023-05-14T12:33:20;21.10;99.90
65404;DHT22;52014;52.088;5.096;2023-05-14T12:35:48;21.00;99.90
65404;DHT22;52014;52.088;5.096;2023-05-14T12:38:13;20.90;99.90
65404;DHT22;52014;52.088;5.096;2023-05-14T12:40:39;20.80;99.90
65404;DHT22;52014;52.088;5.096;2023-05-14T12:43:04;20.80;99.90
65404;DHT22;52014;52.088;5.096;2023-05-14T12:45:30;20.90;99.90
65404;DHT22;52014;52.088;5.096;2023-05-14T12:47:55;21.00;99.90
65404;DHT22;52014;52.088;5.096;2023-05-14T12:50:21;21.10;99.90
65404;DHT22;52014;52.088;5.096;2023-05-14T12:52:46;21.10;99.90
65404;DHT22;52014;52.088;5.096;2023-05-14T12:55:12;21.10;99.90
65404;DHT22;52014;52.088;5.096;2023-05-14T12:57:37;21.10;99.90
65404;DHT22;52014;52.088;5.096;2023-05-14T13:00:03;21.10;99.90
65404;DHT22;52014;52.088;5.096;2023-05-14T13:02:31;21.10;99.90
65404;DHT22;52014;52.088;5.096;2023-05-14T13:04:56;21.00;99.90
65404;DHT22;52014;52.088;5.096;2023-05-14T13:07:22;21.00;99.90
65404;DHT22;52014;52.088;5.096;2023-05-14T13:09:47;21.00;99.90
65404;DHT22;52014;52.088;5.096;2023-05-14T13:12:12;21.00;99.90
65404;DHT22;52014;52.088;5.096;2023-05-14T13:14:38;21.00;99.90
65404;DHT22;52014;52.088;5.096;2023-05-14T13:17:03;21.10;99.90
65404;DHT22;52014;52.088;5.096;2023-05-14T13:19:29;21.20;99.90
65404;DHT22;52014;52.088;5.096;2023-05-14T13:21:55;21.10;99.90
65404;DHT22;52014;52.088;5.096;2023-05-14T13:24:20;21.10;99.90
65404;DHT22;52014;52.088;5.096;2023-05-14T13:26:45;21.00;99.90
65404;DHT22;52014;52.088;5.096;2023-05-14T13:29:11;21.00;99.90
65404;DHT22;52014;52.088;5.096;2023-05-14T13:31:36;20.90;99.90
65404;DHT22;52014;52.088;5.096;2023-05-14T13:34:02;21.00;99.90
65404;DHT22;52014;52.088;5.096;2023-05-14T13:36:27;21.20;99.90
65404;DHT22;52014;52.088;5.096;2023-05-14T13:38:53;21.10;99.90
65404;DHT22;52014;52.088;5.096;2023-05-14T13:41:18;21.10;99.90
65404;DHT22;52014;52.088;5.096;2023-05-14T13:43:44;21.10;99.90
65404;DHT22;52014;52.088;5.096;2023-05-14T13:46:09;21.10;99.90
65404;DHT22;52014;52.088;5.096;2023-05-14T13:48:34;21.00;99.90
65404;DHT22;52014;52.088;5.096;2023-05-14T13:51:01;21.10;99.90
65404;DHT22;52014;52.088;5.096;2023-05-14T13:53:27;21.10;99.90
65404;DHT22;52014;52.088;5.096;2023-05-14T13:55:52;21.10;99.90
65404;DHT22;52014;52.088;5.096;2023-05-14T13:58:25;21.00;99.90
65404;DHT22;52014;52.088;5.096;2023-05-14T14:00:51;21.10;99.90
65404;DHT22;52014;52.088;5.096;2023-05-14T14:03:17;21.00;99.90
65404;DHT22;52014;52.088;5.096;2023-05-14T14:05:42;21.00;99.90
65404;DHT22;52014;52.088;5.096;2023-05-14T14:08:08;21.20;99.90
65404;DHT22;52014;52.088;5.096;2023-05-14T14:10:33;21.10;99.90
65404;DHT22;52014;52.088;5.096;2023-05-14T14:12:58;21.10;99.90
65404;DHT22;52014;52.088;5.096;2023-05-14T14:15:24;21.10;99.90
65404;DHT22;52014;52.088;5.096;2023-05-14T14:17:49;21.00;99.90
65404;DHT22;52014;52.088;5.096;2023-05-14T14:20:15;21.10;99.90
65404;DHT22;52014;52.088;5.096;2023-05-14T14:22:41;21.00;99.90
65404;DHT22;52014;52.088;5.096;2023-05-14T14:25:07;21.10;99.90
65404;DHT22;52014;52.088;5.096;2023-05-14T14:27:33;21.10;99.90
65404;DHT22;52014;52.088;5.096;2023-05-14T14:30:11;21.00;99.90
65404;DHT22;52014;52.088;5.096;2023-05-14T14:32:41;21.10;99.90
65404;DHT22;52014;52.088;5.096;2023-05-14T14:35:07;21.20;99.90
65404;DHT22;52014;52.088;5.096;2023-05-14T14:37:33;21.30;99.90
65404;DHT22;52014;52.088;5.096;2023-05-14T14:39:58;21.40;99.90
65404;DHT22;52014;52.088;5.096;2023-05-14T14:42:24;21.30;99.90
65404;DHT22;52014;52.088;5.096;2023-05-14T14:44:49;21.30;99.90
65404;DHT22;52014;52.088;5.096;2023-05-14T14:47:15;21.20;99.90
65404;DHT22;52014;52.088;5.096;2023-05-14T14:49:40;21.20;99.90
65404;DHT22;52014;52.088;5.096;2023-05-14T14:52:06;21.20;99.90
65404;DHT22;52014;52.088;5.096;2023-05-14T14:54:31;21.10;99.90
65404;DHT22;52014;52.088;5.096;2023-05-14T14:56:57;21.20;99.90
65404;DHT22;52014;52.088;5.096;2023-05-14T14:59:23;21.20;99.90
65404;DHT22;52014;52.088;5.096;2023-05-14T15:01:48;21.10;99.90
65404;DHT22;52014;52.088;5.096;2023-05-14T15:04:14;21.10;99.90
65404;DHT22;52014;52.088;5.096;2023-05-14T15:06:39;21.10;99.90
65404;DHT22;52014;52.088;5.096;2023-05-14T15:09:05;21.20;99.90
65404;DHT22;52014;52.088;5.096;2023-05-14T15:11:31;21.20;99.90
65404;DHT22;52014;52.088;5.096;2023-05-14T15:13:56;21.10;99.90
65404;DHT22;52014;52.088;5.096;2023-05-14T15:16:22;21.00;99.90
65404;DHT22;52014;52.088;5.096;2023-05-14T15:18:47;21.10;99.90
65404;DHT22;52014;52.088;5.096;2023-05-14T15:21:12;21.00;99.90
65404;DHT22;52014;52.088;5.096;2023-05-14T15:23:38;21.00;99.90
65404;DHT22;52014;52.088;5.096;2023-05-14T15:26:03;20.90;99.90
65404;DHT22;52014;52.088;5.096;2023-05-14T15:28:29;21.00;99.90
65404;DHT22;52014;52.088;5.096;2023-05-14T15:30:54;20.90;99.90